Time;durP1;ratioP1;P1;durP2;ratioP2;P2;SDS_P1;SDS_P2;PMS_P1;PMS_P2;Temp;Humidity;BMP_temperature;BMP_pressure;BME280_temperature;BME280_humidity;BME280_pressure;Samples;Min_cycle;Max_cycle;Signal;HPM_P1;HPM_P2
2022/02/12 00:00:13;;;;;;;19.00;7.15;;;;;;;-1.64;89.74;98107.16;2055502;28;20199;-63
2022/02/12 00:01:14;;;;;;;13.35;5.80;;;;;;;-1.63;89.59;98108.84;2063035;28;20226;-64
2022/02/12 00:02:16;;;;;;;66.38;27.33;;;;;;;-1.92;89.31;98083.94;2063994;28;20202;-64
2022/02/12 00:03:18;;;;;;;34.50;15.65;;;;;;;-1.86;89.26;98106.19;2064048;28;20203;-64
2022/02/12 00:04:19;;;;;;;21.55;10.50;;;;;;;-1.94;89.79;98105.28;2062994;28;20208;-64
2022/02/12 00:05:26;;;;;;;12.23;5.80;;;;;;;-1.96;90.22;98095.03;2063730;28;20202;-63
2022/02/12 00:06:28;;;;;;;13.85;6.75;;;;;;;-2.10;90.86;98096.66;2063185;28;20665;-63
2022/02/12 00:07:29;;;;;;;20.58;6.63;;;;;;;-2.12;90.77;98104.34;2062681;28;20194;-63
2022/02/12 00:08:31;;;;;;;20.48;7.63;;;;;;;-2.10;90.82;98101.78;2063490;28;20205;-64
2022/02/12 00:09:33;;;;;;;23.40;8.73;;;;;;;-2.08;90.65;98100.09;2063362;28;20205;-63
2022/02/12 00:10:34;;;;;;;24.08;10.60;;;;;;;-2.06;90.47;98106.09;2062961;28;20766;-63
2022/02/12 00:11:36;;;;;;;24.17;8.13;;;;;;;-2.06;90.62;98100.97;2062053;28;20203;-64
2022/02/12 00:12:37;;;;;;;15.57;6.95;;;;;;;-2.06;91.32;98108.66;2064046;28;20310;-64
2022/02/12 00:13:39;;;;;;;22.13;8.40;;;;;;;-2.13;91.06;98078.69;2063967;28;20431;-63
2022/02/12 00:14:40;;;;;;;25.05;8.48;;;;;;;-2.01;90.89;98105.28;2063967;28;20854;-64
2022/02/12 00:15:47;;;;;;;14.43;6.90;;;;;;;-2.03;91.22;98094.13;2063557;28;20379;-63
2022/02/12 00:16:49;;;;;;;21.08;7.10;;;;;;;-1.88;90.63;98092.47;2064117;28;20504;-64
2022/02/12 00:17:50;;;;;;;20.38;6.53;;;;;;;-1.93;90.92;98095.03;2063957;28;20671;-63
2022/02/12 00:18:52;;;;;;;17.75;7.18;;;;;;;-1.97;91.18;98095.88;2064022;28;20729;-63
2022/02/12 00:19:53;;;;;;;19.08;8.15;;;;;;;-1.97;90.91;98098.44;2064050;28;20304;-64
2022/02/12 00:20:55;;;;;;;12.30;5.95;;;;;;;-1.86;90.91;98101.06;2063356;28;20235;-64
2022/02/12 00:21:56;;;;;;;10.48;5.43;;;;;;;-1.92;91.13;98101.91;2063452;28;20311;-63
2022/02/12 00:22:57;;;;;;;14.52;5.00;;;;;;;-2.09;91.54;98076.13;2061662;28;20197;-63
2022/02/12 00:24:00;;;;;;;16.48;6.70;;;;;;;-2.07;91.59;98099.25;2064024;28;20199;-63
2022/02/12 00:25:02;;;;;;;8.68;5.05;;;;;;;-2.08;91.75;98094.97;2063806;28;20248;-64
2022/02/12 00:26:03;;;;;;;17.90;6.05;;;;;;;-2.04;91.66;98087.31;2063491;28;20224;-64
2022/02/12 00:27:05;;;;;;;15.13;6.55;;;;;;;-1.94;91.07;98080.50;2063882;28;20205;-63
2022/02/12 00:28:06;;;;;;;14.40;6.47;;;;;;;-2.02;91.15;98079.56;2064039;28;20213;-64
2022/02/12 00:29:08;;;;;;;15.73;6.85;;;;;;;-1.86;91.22;98089.09;2067389;28;20198;-64
2022/02/12 00:30:10;;;;;;;19.90;6.80;;;;;;;-2.02;91.50;98067.63;2067212;28;20192;-63
2022/02/12 00:31:12;;;;;;;16.85;6.65;;;;;;;-2.00;92.16;98090.72;2061653;28;20738;-64
2022/02/12 00:32:14;;;;;;;14.93;5.80;;;;;;;-1.89;91.19;98088.22;2063942;28;20674;-63
2022/02/12 00:33:17;;;;;;;26.27;6.07;;;;;;;-1.85;91.04;98090.78;2063907;28;20699;-63
2022/02/12 00:34:19;;;;;;;14.63;5.80;;;;;;;-1.79;90.55;98085.66;2063825;28;20198;-64
2022/02/12 00:35:20;;;;;;;14.00;5.80;;;;;;;-1.81;90.08;98083.97;2063474;28;20200;-63
2022/02/12 00:36:22;;;;;;;14.13;6.68;;;;;;;-1.88;90.13;98075.38;2063744;28;20196;-64
2022/02/12 00:37:26;;;;;;;14.10;5.97;;;;;;;-1.90;89.65;98077.09;2063983;28;20209;-64
2022/02/12 00:38:27;;;;;;;10.27;5.68;;;;;;;-1.87;89.54;98073.66;2063771;28;20561;-64
2022/02/12 00:39:29;;;;;;;12.07;5.70;;;;;;;-1.83;89.71;98085.66;2063967;28;20211;-64
2022/02/12 00:40:31;;;;;;;12.68;5.38;;;;;;;-1.94;89.29;98077.06;2063472;28;20584;-64
2022/02/12 00:41:32;;;;;;;7.18;5.43;;;;;;;-2.00;89.83;98073.63;2063940;28;20198;-64
2022/02/12 00:42:34;;;;;;;14.32;6.30;;;;;;;-2.01;88.92;98068.47;2063915;28;20412;-64
2022/02/12 00:43:37;;;;;;;18.42;5.78;;;;;;;-2.04;89.52;98079.59;2063911;28;20197;-64
2022/02/12 00:44:39;;;;;;;14.00;5.53;;;;;;;-1.99;89.72;98074.47;2063781;28;20203;-64
2022/02/12 00:45:41;;;;;;;10.70;5.20;;;;;;;-1.96;89.45;98069.38;2063313;28;20692;-64
2022/02/12 00:46:42;;;;;;;12.20;5.65;;;;;;;-1.92;89.29;98073.66;2063674;28;20236;-64
2022/02/12 00:47:44;;;;;;;15.35;5.85;;;;;;;-1.94;90.05;98072.78;2063840;28;20564;-64
2022/02/12 00:48:45;;;;;;;13.93;5.22;;;;;;;-1.94;90.34;98075.38;2063644;28;20211;-64
2022/02/12 00:49:47;;;;;;;12.00;6.50;;;;;;;-1.89;89.81;98067.66;2063711;28;20743;-64
2022/02/12 00:50:48;;;;;;;19.27;5.68;;;;;;;-1.91;90.09;98074.50;2063294;28;20220;-64
2022/02/12 00:51:51;;;;;;;13.10;4.68;;;;;;;-1.85;89.76;98075.38;2063497;28;20205;-64
2022/02/12 00:52:52;;;;;;;16.98;5.80;;;;;;;-1.98;90.08;98078.75;2063816;28;20229;-63
2022/02/12 00:53:54;;;;;;;8.82;5.32;;;;;;;-2.03;90.41;98076.16;2063611;28;20563;-64
2022/02/12 00:54:55;;;;;;;10.60;5.00;;;;;;;-2.09;90.40;98076.13;2063682;28;20192;-64
2022/02/12 00:55:57;;;;;;;12.85;5.63;;;;;;;-2.01;90.01;98081.31;2061321;28;20233;-64
2022/02/12 00:57:02;;;;;;;12.07;5.85;;;;;;;-2.07;89.77;98073.59;2063190;28;20208;-64
2022/02/12 00:58:03;;;;;;;15.68;6.25;;;;;;;-2.23;90.35;98076.06;2062638;28;20267;-61
2022/02/12 00:59:05;;;;;;;9.45;4.97;;;;;;;-2.16;90.15;98083.78;2063649;28;20204;-62
2022/02/12 01:00:07;;;;;;;19.67;5.88;;;;;;;-2.17;90.38;98079.53;2063233;28;20897;-62
2022/02/12 01:01:08;;;;;;;17.85;6.03;;;;;;;-2.21;90.21;98082.06;2062050;28;20742;-62
2022/02/12 01:02:10;;;;;;;8.30;4.10;;;;;;;-2.22;90.40;98072.63;2063643;28;20234;-62
2022/02/12 01:03:12;;;;;;;18.77;5.15;;;;;;;-2.25;89.49;98085.47;2063736;28;20208;-62
2022/02/12 01:04:13;;;;;;;9.65;5.00;;;;;;;-2.21;89.31;98086.34;2063132;28;20208;-62
2022/02/12 01:05:15;;;;;;;15.02;5.13;;;;;;;-2.11;89.23;98084.69;2063045;28;20224;-62
2022/02/12 01:06:16;;;;;;;14.70;6.00;;;;;;;-2.21;89.39;98082.06;2063835;28;20200;-62
2022/02/12 01:07:18;;;;;;;15.32;5.60;;;;;;;-2.29;89.66;98088.03;2063743;28;20226;-62
2022/02/12 01:08:19;;;;;;;14.60;6.20;;;;;;;-2.35;90.14;98091.41;2063809;28;20199;-61
2022/02/12 01:09:21;;;;;;;21.17;5.72;;;;;;;-2.24;90.34;98083.75;2063337;28;20208;-62
2022/02/12 01:10:22;;;;;;;12.52;5.10;;;;;;;-2.23;89.27;98085.47;2063332;28;20683;-62
2022/02/12 01:11:24;;;;;;;12.20;5.40;;;;;;;-2.36;88.93;98084.53;2063702;28;20212;-62
2022/02/12 01:12:26;;;;;;;23.08;7.72;;;;;;;-2.46;89.19;98083.63;2063503;28;20218;-61
2022/02/12 01:13:28;;;;;;;8.88;5.28;;;;;;;-2.53;89.99;98084.41;2061812;28;20214;-61
2022/02/12 01:14:29;;;;;;;19.77;7.75;;;;;;;-2.47;89.85;98081.03;2063594;28;20300;-61
2022/02/12 01:15:34;;;;;;;13.68;5.68;;;;;;;-2.35;89.93;98077.69;2063364;28;20212;-61
2022/02/12 01:16:36;;;;;;;10.57;5.60;;;;;;;-2.43;89.40;98072.50;2062749;28;20201;-62
2022/02/12 01:17:37;;;;;;;11.60;5.97;;;;;;;-2.52;88.74;98047.66;2063210;28;20923;-61
2022/02/12 01:18:39;;;;;;;14.60;5.93;;;;;;;-2.31;89.50;98080.31;2063628;28;20203;-62
2022/02/12 01:19:40;;;;;;;14.73;7.10;;;;;;;-2.38;89.88;98078.53;2063357;28;20195;-62
2022/02/12 01:20:42;;;;;;;17.77;6.75;;;;;;;-2.46;90.12;98069.94;2063060;28;20225;-61
2022/02/12 01:21:44;;;;;;;12.45;6.35;;;;;;;-2.46;90.30;98073.34;2063620;28;20219;-62
2022/02/12 01:22:47;;;;;;;14.80;6.40;;;;;;;-2.48;90.46;98066.50;2063751;28;20407;-61
2022/02/12 01:23:51;;;;;;;20.42;5.72;;;;;;;-2.44;90.04;98063.97;2063003;28;20210;-61
2022/02/12 01:24:53;;;;;;;19.10;5.57;;;;;;;-2.40;89.70;98070.81;2063768;28;20207;-62
2022/02/12 01:25:54;;;;;;;10.50;4.68;;;;;;;-2.30;89.46;98065.75;2063276;28;20223;-62
2022/02/12 01:26:56;;;;;;;13.90;6.10;;;;;;;-2.31;89.18;98067.47;2063821;28;20200;-62
2022/02/12 01:27:57;;;;;;;11.63;5.40;;;;;;;-2.35;88.97;98058.03;2063759;28;20655;-62
2022/02/12 01:28:59;;;;;;;11.13;6.28;;;;;;;-2.34;89.65;98076.84;2063651;28;20215;-62
2022/02/12 01:30:01;;;;;;;12.20;5.47;;;;;;;-2.24;89.44;98060.66;2066919;28;20335;-62
2022/02/12 01:31:02;;;;;;;12.65;5.38;;;;;;;-2.21;89.20;98063.25;2066770;28;20777;-62
2022/02/12 01:32:04;;;;;;;14.98;5.18;;;;;;;-2.24;89.15;98050.38;2063728;28;20197;-62
2022/02/12 01:33:06;;;;;;;10.70;5.65;;;;;;;-2.25;89.01;98059.81;2063521;28;20204;-62
2022/02/12 01:34:07;;;;;;;12.43;5.82;;;;;;;-2.17;88.96;98051.28;2063717;28;20200;-62
2022/02/12 01:35:10;;;;;;;15.57;6.55;;;;;;;-2.31;88.62;98062.34;2063877;28;20816;-62
2022/02/12 01:36:11;;;;;;;13.02;6.50;;;;;;;-2.27;88.71;98061.50;2063193;28;20224;-62
2022/02/12 01:37:13;;;;;;;18.30;5.05;;;;;;;-2.38;88.88;98063.13;2063777;28;20203;-62
2022/02/12 01:38:16;;;;;;;18.85;5.93;;;;;;;-2.58;89.23;98020.25;2063336;28;20203;-62
2022/02/12 01:39:18;;;;;;;11.35;6.18;;;;;;;-2.21;88.89;98053.81;2063233;28;20215;-62
2022/02/12 01:40:21;;;;;;;15.55;6.32;;;;;;;-2.49;89.29;98034.00;2063336;28;20200;-62
2022/02/12 01:41:23;;;;;;;13.20;6.53;;;;;;;-2.42;89.65;98049.44;2061654;28;20201;-62
2022/02/12 01:42:27;;;;;;;18.80;6.43;;;;;;;-2.42;89.73;98059.69;2063749;28;20199;-62
2022/02/12 01:43:31;;;;;;;20.83;6.60;;;;;;;-2.49;89.94;98047.69;2063586;28;20215;-62
2022/02/12 01:44:36;;;;;;;15.05;5.43;;;;;;;-2.49;89.86;98057.06;2063732;28;20524;-62
2022/02/12 01:45:39;;;;;;;18.63;6.07;;;;;;;-2.48;89.74;98069.06;2063284;28;20229;-62
2022/02/12 01:46:40;;;;;;;11.20;5.63;;;;;;;-2.48;90.13;98062.22;2063844;28;20201;-62
2022/02/12 01:47:42;;;;;;;14.93;6.03;;;;;;;-2.60;89.69;98052.75;2063805;28;20204;-65
2022/02/12 01:48:44;;;;;;;15.07;6.22;;;;;;;-2.51;89.88;98058.78;2063742;28;20209;-65
2022/02/12 01:49:46;;;;;;;15.68;6.78;;;;;;;-2.57;89.28;98049.34;2063651;28;20647;-65
2022/02/12 01:50:50;;;;;;;20.38;5.72;;;;;;;-2.53;89.44;98057.91;2063148;28;20697;-65
2022/02/12 01:51:52;;;;;;;13.38;5.82;;;;;;;-2.47;89.21;98057.94;2063483;28;20203;-65
2022/02/12 01:52:54;;;;;;;17.45;6.10;;;;;;;-2.50;88.87;98043.41;2063593;28;20390;-65
2022/02/12 01:53:56;;;;;;;21.55;7.07;;;;;;;-2.54;88.81;98051.09;2063514;28;20200;-62
2022/02/12 01:54:57;;;;;;;9.77;5.35;;;;;;;-2.58;89.96;98043.34;2062704;28;20208;-62
2022/02/12 01:55:59;;;;;;;11.80;5.85;;;;;;;-2.53;90.04;98047.66;2063067;28;20357;-62
2022/02/12 01:57:03;;;;;;;14.20;5.90;;;;;;;-2.66;89.93;98044.16;2063464;28;20211;-62
2022/02/12 01:58:09;;;;;;;25.23;6.93;;;;;;;-2.72;89.80;98050.09;2062870;28;20247;-63
2022/02/12 01:59:11;;;;;;;11.30;5.15;;;;;;;-2.76;89.47;98047.50;2063316;28;20656;-63
2022/02/12 02:00:15;;;;;;;10.80;5.70;;;;;;;-2.81;89.09;98050.03;2063591;28;20204;-62
2022/02/12 02:01:17;;;;;;;9.35;5.00;;;;;;;-2.78;89.31;98055.19;2062929;28;20237;-62
2022/02/12 02:02:18;;;;;;;9.10;5.05;;;;;;;-2.78;88.73;98030.41;2063651;28;20215;-63
2022/02/12 02:03:20;;;;;;;7.80;4.70;;;;;;;-2.66;88.27;98049.28;2063593;28;20200;-62
2022/02/12 02:04:24;;;;;;;10.00;5.20;;;;;;;-2.82;88.42;98053.47;2063648;28;20201;-63
2022/02/12 02:05:26;;;;;;;21.27;5.72;;;;;;;-2.98;88.93;98044.75;2063101;28;20199;-63
2022/02/12 02:06:27;;;;;;;13.77;4.90;;;;;;;-3.00;89.00;98044.78;2063704;28;20201;-63
2022/02/12 02:07:29;;;;;;;16.35;6.07;;;;;;;-2.86;89.09;98049.13;2062917;28;20674;-63
2022/02/12 02:08:30;;;;;;;8.75;4.97;;;;;;;-2.89;88.91;98049.13;2063665;28;20202;-63
2022/02/12 02:09:32;;;;;;;16.00;5.10;;;;;;;-2.92;89.08;98047.41;2063709;28;20196;-63
2022/02/12 02:10:34;;;;;;;14.25;4.80;;;;;;;-2.89;89.49;98044.00;2062287;28;20572;-63
2022/02/12 02:11:37;;;;;;;10.15;5.57;;;;;;;-2.89;88.97;98044.00;2066733;28;20206;-62
2022/02/12 02:12:39;;;;;;;13.98;5.53;;;;;;;-3.11;89.31;98012.22;2067084;28;20199;-63
2022/02/12 02:13:40;;;;;;;14.93;5.60;;;;;;;-2.93;nan;98042.25;2063175;28;20207;-63
2022/02/12 02:14:42;;;;;;;12.68;5.90;;;;;;;-2.93;89.21;98039.69;2055107;28;20686;-63
2022/02/12 02:15:44;;;;;;;17.65;5.90;;;;;;;-2.88;89.09;98045.69;2062556;28;20224;-63
2022/02/12 02:16:45;;;;;;;9.40;5.85;;;;;;;-2.85;89.40;98045.72;2063509;28;20556;-63
2022/02/12 02:17:47;;;;;;;20.63;5.60;;;;;;;-2.78;89.34;98050.91;2062320;28;20203;-62
2022/02/12 02:18:48;;;;;;;12.07;5.70;;;;;;;-2.92;88.81;98023.44;2063587;28;20211;-63
2022/02/12 02:19:50;;;;;;;10.25;6.10;;;;;;;-2.88;88.69;98036.31;2063522;28;20202;-63
2022/02/12 02:20:52;;;;;;;20.42;5.68;;;;;;;-2.96;88.62;98027.69;2063085;28;20251;-63
2022/02/12 02:21:55;;;;;;;10.85;5.30;;;;;;;-3.05;88.69;98000.28;2063338;28;20539;-62
2022/02/12 02:22:57;;;;;;;10.73;5.07;;;;;;;-2.83;89.00;98024.38;2062354;28;20195;-63
2022/02/12 02:23:59;;;;;;;18.48;5.80;;;;;;;-2.74;88.65;98045.78;2062736;28;20201;-63
2022/02/12 02:25:01;;;;;;;15.60;6.32;;;;;;;-2.79;88.75;98026.09;2062483;28;20226;-62
2022/02/12 02:26:03;;;;;;;13.88;6.90;;;;;;;-2.71;88.79;98028.72;2062423;28;20223;-63
2022/02/12 02:27:07;;;;;;;20.33;5.63;;;;;;;-2.83;89.26;98028.66;2063602;28;20211;-63
2022/02/12 02:28:09;;;;;;;16.98;6.20;;;;;;;-2.90;89.64;98026.88;2062164;28;20228;-63
2022/02/12 02:29:11;;;;;;;16.60;5.80;;;;;;;-2.96;90.03;98034.53;2062509;28;20207;-63
2022/02/12 02:30:18;;;;;;;11.48;6.63;;;;;;;-3.02;90.26;98030.22;2063515;28;20203;-63
2022/02/12 02:31:19;;;;;;;12.60;6.07;;;;;;;-3.17;90.88;98002.78;2063316;28;20528;-63
2022/02/12 02:32:26;;;;;;;14.45;6.10;;;;;;;-2.94;90.18;98030.28;2064983;28;20201;-63
2022/02/12 02:33:28;;;;;;;11.68;5.63;;;;;;;-2.95;89.74;98016.59;2064894;28;20203;-62
2022/02/12 02:34:31;;;;;;;17.45;6.80;;;;;;;-2.99;90.43;98014.88;2064965;28;20204;-63
2022/02/12 02:35:33;;;;;;;14.55;6.38;;;;;;;-2.99;90.35;98022.56;2064560;28;20232;-63
2022/02/12 02:36:35;;;;;;;18.73;6.22;;;;;;;-3.02;90.12;98022.50;2064832;28;20207;-63
2022/02/12 02:37:38;;;;;;;17.52;6.28;;;;;;;-2.97;90.21;98018.28;2064997;28;20207;-63
2022/02/12 02:38:40;;;;;;;17.90;6.47;;;;;;;-2.95;89.67;98010.63;2064588;28;20208;-63
2022/02/12 02:39:42;;;;;;;9.98;6.20;;;;;;;-2.87;88.94;98019.22;2064868;28;20195;-63
2022/02/12 02:40:45;;;;;;;9.45;5.47;;;;;;;-3.14;88.84;97995.09;2064612;28;20230;-62
2022/02/12 02:41:46;;;;;;;16.13;5.50;;;;;;;-3.04;89.12;98013.97;2064791;28;20266;-62
2022/02/12 02:42:50;;;;;;;10.30;5.43;;;;;;;-3.02;89.36;98013.16;2064573;28;20205;-63
2022/02/12 02:43:52;;;;;;;9.82;6.07;;;;;;;-3.07;89.59;98001.97;2064927;28;20816;-62
2022/02/12 02:44:54;;;;;;;13.75;6.70;;;;;;;-3.05;89.53;98002.00;2065004;28;20238;-63
2022/02/12 02:45:55;;;;;;;17.38;6.28;;;;;;;-3.11;89.76;97997.69;2064435;28;20658;-63
2022/02/12 02:46:57;;;;;;;15.05;6.30;;;;;;;-3.16;90.17;98004.47;2064974;28;20691;-63
2022/02/12 02:48:00;;;;;;;10.88;6.00;;;;;;;-3.16;89.86;98001.91;2064917;28;20194;-62
2022/02/12 02:49:02;;;;;;;16.77;5.53;;;;;;;-3.25;89.66;97997.56;2064411;28;20198;-63
2022/02/12 02:55:59;;;;;;;13.57;5.95;;;;;;;-3.16;89.73;98001.91;2064930;28;20618;-62
2022/02/12 02:56:46;;;;;;;11.18;5.57;;;;;;;-3.01;89.07;97993.50;2064706;28;20210;-62
2022/02/12 02:57:47;;;;;;;14.25;6.70;;;;;;;-3.06;89.10;98000.28;2064753;28;20323;-63
2022/02/12 02:58:53;;;;;;;12.43;6.13;;;;;;;-3.11;89.10;97996.84;2064152;28;20204;-62
2022/02/12 02:59:54;;;;;;;25.58;6.20;;;;;;;-3.04;88.97;97996.91;2064029;28;20198;-62
2022/02/12 03:00:56;;;;;;;16.67;5.53;;;;;;;-3.07;89.37;97996.00;2064308;28;20224;-62
2022/02/12 03:01:57;;;;;;;11.25;6.15;;;;;;;-3.11;90.33;97994.28;2064221;28;20278;-63
2022/02/12 03:02:59;;;;;;;13.05;6.70;;;;;;;-3.30;90.28;97965.91;2063568;28;20677;-63
2022/02/12 03:04:00;;;;;;;16.63;8.20;;;;;;;-3.07;89.95;97984.03;2064101;28;20550;-62
2022/02/12 03:05:02;;;;;;;8.32;5.68;;;;;;;-3.06;89.97;97988.34;2064788;28;20201;-62
2022/02/12 03:06:03;;;;;;;12.00;5.55;;;;;;;-2.99;89.46;97987.50;2064295;28;20228;-62
2022/02/12 03:07:05;;;;;;;12.55;6.15;;;;;;;-2.94;89.42;97989.25;2064775;28;20196;-62
2022/02/12 03:08:06;;;;;;;12.93;5.95;;;;;;;-3.15;89.05;97952.38;2064921;28;20199;-62
2022/02/12 03:09:08;;;;;;;14.52;6.45;;;;;;;-3.01;89.12;97990.91;2064790;28;20208;-62
2022/02/12 03:10:09;;;;;;;7.75;5.47;;;;;;;-3.14;89.40;97992.53;2064769;28;20207;-62
2022/02/12 03:11:13;;;;;;;12.35;7.15;;;;;;;-3.14;89.76;97986.53;2064119;28;20218;-62
2022/02/12 03:12:14;;;;;;;17.80;6.53;;;;;;;-3.13;89.46;97989.13;2064697;28;20602;-62
2022/02/12 03:13:16;;;;;;;19.30;7.53;;;;;;;-3.38;89.76;97958.16;2064563;28;20203;-62
2022/02/12 03:14:18;;;;;;;13.70;6.07;;;;;;;-3.22;89.72;97978.78;2064677;28;20201;-62
2022/02/12 03:15:20;;;;;;;14.90;6.45;;;;;;;-3.17;89.38;97989.94;2064160;28;20308;-62
2022/02/12 03:16:22;;;;;;;11.25;6.13;;;;;;;-3.24;89.85;97983.06;2064785;28;20783;-62
2022/02/12 03:17:23;;;;;;;22.52;6.80;;;;;;;-3.22;89.71;97989.91;2063414;28;20203;-62
2022/02/12 03:18:25;;;;;;;14.90;6.03;;;;;;;-3.33;89.33;97976.16;2063999;28;20214;-63
2022/02/12 03:19:27;;;;;;;12.30;6.13;;;;;;;-3.23;89.91;97982.22;2063796;28;20208;-62
2022/02/12 03:20:28;;;;;;;14.40;6.45;;;;;;;-3.26;89.85;97982.19;2062338;28;20204;-62
2022/02/12 03:21:30;;;;;;;14.70;6.80;;;;;;;-3.17;89.72;97979.69;2064745;28;20204;-62
2022/02/12 03:22:31;;;;;;;18.02;6.10;;;;;;;-3.21;89.49;97980.53;2064368;28;20587;-62
2022/02/12 03:23:37;;;;;;;16.17;6.00;;;;;;;-3.18;88.89;97977.97;2064638;28;20230;-62
2022/02/12 03:24:39;;;;;;;15.80;6.50;;;;;;;-3.20;89.08;97977.09;2064609;28;20399;-62
2022/02/12 03:25:40;;;;;;;8.35;5.05;;;;;;;-3.39;89.45;97968.44;2064195;28;20222;-62
2022/02/12 03:26:42;;;;;;;12.93;5.57;;;;;;;-3.32;89.58;97974.44;2064728;28;20210;-62
2022/02/12 03:27:51;;;;;;;12.60;5.90;;;;;;;-3.29;89.22;97967.66;2064360;28;20646;-62
2022/02/12 03:28:52;;;;;;;10.57;5.15;;;;;;;-3.18;88.81;97972.84;2064208;28;20203;-62
2022/02/12 03:29:54;;;;;;;12.88;6.40;;;;;;;-3.21;88.42;97976.25;2064676;28;20206;-62
2022/02/12 03:30:55;;;;;;;13.63;7.22;;;;;;;-3.25;88.84;97963.41;2064214;28;20222;-62
2022/02/12 03:31:57;;;;;;;7.93;5.53;;;;;;;-3.19;88.80;97966.03;2063971;28;20198;-62
2022/02/12 03:32:59;;;;;;;14.55;5.97;;;;;;;-3.24;88.88;97967.69;2063976;28;20429;-62
2022/02/12 03:34:00;;;;;;;9.70;5.57;;;;;;;-3.24;88.79;97977.94;2064610;28;20204;-62
2022/02/12 03:35:02;;;;;;;12.52;6.47;;;;;;;-3.24;88.76;97971.09;2064535;28;20202;-62
2022/02/12 03:36:04;;;;;;;9.75;6.43;;;;;;;-3.47;88.88;97927.38;2067407;28;20222;-62
2022/02/12 03:37:05;;;;;;;11.43;5.68;;;;;;;-3.22;88.57;97971.97;2067730;28;20210;-62
2022/02/12 03:38:10;;;;;;;14.80;6.28;;;;;;;-3.32;87.76;97943.72;2067802;28;20210;-61
2022/02/12 03:39:11;;;;;;;10.55;5.15;;;;;;;-3.27;87.82;97965.97;2067338;28;20591;-62
2022/02/12 03:40:12;;;;;;;10.85;5.60;;;;;;;-3.32;88.18;97969.31;2064305;28;20203;-62
2022/02/12 03:41:14;;;;;;;8.80;4.22;;;;;;;-3.27;88.88;97959.97;2064271;28;20683;-63
2022/02/12 03:42:16;;;;;;;15.63;5.78;;;;;;;-3.24;88.17;97963.41;2064103;28;20199;-63
2022/02/12 03:43:18;;;;;;;11.80;6.38;;;;;;;-3.30;88.12;97972.75;2064305;28;20675;-63
2022/02/12 03:44:19;;;;;;;16.77;5.60;;;;;;;-3.33;88.80;97972.72;2064534;28;20212;-62
2022/02/12 03:45:22;;;;;;;11.85;5.80;;;;;;;-3.35;88.58;97966.72;2063942;28;20203;-62
2022/02/12 03:46:24;;;;;;;15.55;6.53;;;;;;;-3.40;89.18;97961.56;2064468;28;20204;-63
2022/02/12 03:47:25;;;;;;;16.70;6.65;;;;;;;-3.44;89.19;97957.28;2064349;28;20203;-63
2022/02/12 03:48:27;;;;;;;15.00;6.30;;;;;;;-3.75;89.85;97910.91;2068170;28;20202;-62
2022/02/12 03:49:29;;;;;;;12.85;5.70;;;;;;;-3.55;89.18;97948.63;2066254;28;20264;-63
2022/02/12 03:50:32;;;;;;;14.32;6.20;;;;;;;-3.44;88.92;97958.13;2064097;28;20690;-63
2022/02/12 03:51:33;;;;;;;19.33;7.07;;;;;;;-3.40;89.02;97952.19;2064411;28;20213;-62
2022/02/12 03:52:34;;;;;;;11.55;6.68;;;;;;;-3.34;88.14;97953.09;2064311;28;20739;-63
2022/02/12 03:53:36;;;;;;;11.20;6.07;;;;;;;-3.24;88.32;97954.88;2064300;28;20210;-62
2022/02/12 03:54:37;;;;;;;15.23;5.60;;;;;;;-3.28;88.22;97945.44;2064226;28;20214;-63
2022/02/12 03:55:40;;;;;;;18.75;6.00;;;;;;;-3.33;87.70;97957.34;2063965;28;20231;-63
2022/02/12 03:56:41;;;;;;;11.52;5.10;;;;;;;-3.45;87.89;97959.00;2064309;28;20195;-62
2022/02/12 03:57:43;;;;;;;13.15;5.40;;;;;;;-3.54;87.80;97955.50;2064106;28;20643;-63
2022/02/12 03:58:48;;;;;;;11.40;5.47;;;;;;;-3.59;88.06;97952.88;2064417;28;20207;-63
2022/02/12 03:59:49;;;;;;;13.15;4.80;;;;;;;-3.65;88.27;97945.13;2063889;28;20686;-63
2022/02/12 04:00:53;;;;;;;14.15;6.38;;;;;;;-3.63;88.31;97956.25;2063186;28;20257;-63
2022/02/12 04:01:54;;;;;;;17.77;6.13;;;;;;;-3.62;88.30;97947.75;2064445;28;20204;-62
2022/02/12 04:02:57;;;;;;;10.18;5.70;;;;;;;-3.64;88.47;97949.44;2064280;28;20206;-63
2022/02/12 04:03:59;;;;;;;18.63;6.20;;;;;;;-3.64;88.32;97944.31;2063909;28;20209;-62
2022/02/12 04:05:00;;;;;;;12.05;5.65;;;;;;;-3.68;88.35;97943.41;2059523;28;20204;-63
2022/02/12 04:06:02;;;;;;;18.38;6.00;;;;;;;-3.67;87.99;97949.38;2059087;28;20232;-63
2022/02/12 04:07:04;;;;;;;10.52;6.07;;;;;;;-3.69;88.35;97956.19;2064280;28;20242;-62
2022/02/12 04:08:05;;;;;;;22.00;6.63;;;;;;;-3.75;89.16;97938.22;2064080;28;20198;-62
2022/02/12 04:09:07;;;;;;;13.77;6.22;;;;;;;-3.75;89.37;97936.50;2064199;28;20230;-63
2022/02/12 04:10:11;;;;;;;12.75;6.82;;;;;;;-3.86;89.26;97918.50;2064389;28;20206;-62
2022/02/12 04:11:12;;;;;;;11.73;5.72;;;;;;;-3.71;89.49;97937.41;2063693;28;20223;-62
2022/02/12 04:12:14;;;;;;;12.00;5.78;;;;;;;-3.67;88.90;97934.88;2064227;28;20406;-63
2022/02/12 04:13:19;;;;;;;13.80;6.13;;;;;;;-3.64;88.11;97934.06;2064123;28;20199;-62
2022/02/12 04:14:21;;;;;;;14.30;5.55;;;;;;;-3.74;88.85;97928.00;2064255;28;20253;-63
2022/02/12 04:15:25;;;;;;;15.95;7.70;;;;;;;-3.72;89.76;97928.88;2063398;28;20206;-62
2022/02/12 04:16:26;;;;;;;15.52;6.50;;;;;;;-3.68;88.97;97927.19;2062806;28;20191;-62
2022/02/12 04:17:32;;;;;;;18.13;7.25;;;;;;;-3.71;88.90;97916.91;2064234;28;20202;-62
2022/02/12 04:18:33;;;;;;;16.27;5.85;;;;;;;-3.61;88.38;97923.81;2064222;28;20195;-63
2022/02/12 04:19:35;;;;;;;11.95;6.38;;;;;;;-3.63;88.66;97910.16;2062694;28;20199;-63
2022/02/12 04:20:37;;;;;;;12.07;6.60;;;;;;;-3.65;88.49;97916.97;2063833;28;20218;-63
2022/02/12 04:21:38;;;;;;;18.33;5.72;;;;;;;-3.64;88.80;97916.13;2064184;28;20198;-62
2022/02/12 04:22:41;;;;;;;15.02;6.20;;;;;;;-3.68;89.15;97914.41;2064104;28;20202;-63
2022/02/12 04:23:42;;;;;;;13.90;5.93;;;;;;;-3.71;89.32;97911.78;2064024;28;20198;-63
2022/02/12 04:24:44;;;;;;;20.13;6.32;;;;;;;-3.73;89.58;97908.38;2064323;28;20205;-62
2022/02/12 04:25:46;;;;;;;18.90;6.57;;;;;;;-3.76;90.04;97911.75;2063738;28;20222;-63
2022/02/12 04:26:47;;;;;;;16.15;6.40;;;;;;;-3.80;89.92;97904.91;2064039;28;20268;-63
2022/02/12 04:27:49;;;;;;;14.10;6.28;;;;;;;-3.80;90.29;97902.34;2062198;28;20202;-62
2022/02/12 04:28:50;;;;;;;13.23;6.65;;;;;;;-3.74;90.32;97904.06;2063466;28;20218;-62
2022/02/12 04:29:53;;;;;;;13.57;6.07;;;;;;;-3.80;89.79;97872.47;2063970;28;20203;-62
2022/02/12 04:30:54;;;;;;;14.23;6.13;;;;;;;-3.71;89.41;97889.59;2063761;28;20222;-62
2022/02/12 04:31:56;;;;;;;10.82;5.90;;;;;;;-3.69;89.36;97903.28;2063360;28;20196;-63
2022/02/12 04:32:58;;;;;;;13.43;5.82;;;;;;;-3.66;88.80;97905.03;2063584;28;20203;-63
2022/02/12 04:34:01;;;;;;;13.65;6.78;;;;;;;-3.74;89.35;97896.38;2062909;28;20225;-62
2022/02/12 04:35:04;;;;;;;13.73;7.22;;;;;;;-3.85;88.50;97892.03;2063959;28;20202;-62
2022/02/12 04:36:06;;;;;;;15.15;6.22;;;;;;;-3.92;88.80;97887.72;2066615;28;20234;-63
2022/02/12 04:37:38;;;;;;;;;;;;;;;;;;;;;
2022/02/12 04:39:02;;;;;;;12.05;5.88;;;;;;;-3.83;88.15;97908.28;2056681;28;20207;-60
2022/02/12 04:40:13;;;;;;;8.68;5.30;;;;;;;-3.93;87.63;97903.91;2064407;28;20194;-63
2022/02/12 04:41:14;;;;;;;12.77;5.45;;;;;;;-3.98;88.39;97903.88;2063284;28;20227;-64
2022/02/12 04:42:33;;;;;;;13.10;6.10;;;;;;;-3.84;88.52;97898.91;2063962;28;20206;-64
2022/02/12 04:43:37;;;;;;;16.58;6.60;;;;;;;-3.70;88.13;97903.28;2063867;28;20198;-64
2022/02/12 04:44:40;;;;;;;16.50;6.50;;;;;;;-3.73;88.22;97896.41;2063942;28;20260;-63
2022/02/12 04:45:41;;;;;;;22.48;6.65;;;;;;;-3.75;88.42;97898.09;2062807;28;20223;-64
2022/02/12 04:46:43;;;;;;;14.50;5.40;;;;;;;-3.89;88.51;97892.88;2063891;28;20199;-64
2022/02/12 04:47:44;;;;;;;12.20;5.93;;;;;;;-3.94;88.51;97891.09;2063137;28;20238;-63
2022/02/12 04:48:48;;;;;;;20.00;6.07;;;;;;;-4.05;88.70;97883.34;2063841;28;20199;-63
2022/02/12 04:49:51;;;;;;;8.73;5.93;;;;;;;-3.88;88.74;97893.72;2063940;28;20207;-64
2022/02/12 04:50:52;;;;;;;14.48;5.57;;;;;;;-3.90;88.31;97891.16;2063469;28;20736;-63
2022/02/12 04:51:53;;;;;;;12.95;6.13;;;;;;;-4.00;88.25;97884.22;2063815;28;20213;-63
2022/02/12 04:52:56;;;;;;;20.80;6.50;;;;;;;-4.07;88.58;97888.44;2063793;28;20215;-63
2022/02/12 04:53:58;;;;;;;12.40;5.80;;;;;;;-3.86;88.62;97890.34;2062781;28;20198;-63
2022/02/12 04:55:00;;;;;;;17.05;6.40;;;;;;;-4.01;88.00;97874.84;2063345;28;20597;-63
2022/02/12 04:56:02;;;;;;;13.60;6.18;;;;;;;-4.06;88.13;97884.16;2063311;28;20223;-64